Time;durP1;ratioP1;P1;durP2;ratioP2;P2;SDS_P1;SDS_P2;PMS_P1;PMS_P2;Temp;Humidity;BMP_temperature;BMP_pressure;BME280_temperature;BME280_humidity;BME280_pressure;Samples;Min_cycle;Max_cycle;Signal;HPM_P1;HPM_P2
2022/12/03 00:00:37;;;;;;;21.27;12.53;;;7.80;77.30;7.50;96436.00;;;;5105716;28;20244;-82
2022/12/03 00:03:04;;;;;;;19.60;12.03;;;7.80;77.30;7.50;96429.00;;;;5086080;28;20199;-81
2022/12/03 00:05:32;;;;;;;18.87;11.73;;;7.80;77.10;7.50;96431.00;;;;5087104;28;20220;-81
2022/12/03 00:07:59;;;;;;;20.80;12.90;;;7.80;77.10;7.50;96434.00;;;;5087286;28;20240;-81
2022/12/03 00:10:26;;;;;;;19.93;13.10;;;7.70;77.00;7.50;96439.00;;;;5087031;28;20206;-81
2022/12/03 00:12:54;;;;;;;17.53;10.83;;;7.70;77.00;7.50;96443.00;;;;5086473;28;20208;-81
2022/12/03 00:15:21;;;;;;;18.70;11.13;;;7.70;77.00;7.50;96437.00;;;;5088448;28;20608;-81
2022/12/03 00:17:49;;;;;;;19.83;12.07;;;7.70;77.10;7.50;96441.00;;;;5086906;28;20266;-81
2022/12/03 00:20:21;;;;;;;19.70;12.37;;;7.70;77.30;7.50;96435.00;;;;5087361;28;20215;-81
2022/12/03 00:22:49;;;;;;;19.67;12.03;;;7.70;77.10;7.40;96436.00;;;;5087811;28;20196;-81
2022/12/03 00:25:17;;;;;;;20.50;12.53;;;7.70;77.20;7.40;96424.00;;;;5080642;28;20697;-82
2022/12/03 00:27:44;;;;;;;18.53;12.00;;;7.70;77.10;7.40;96428.00;;;;5088204;28;20223;-82
2022/12/03 00:30:13;;;;;;;18.33;12.37;;;7.70;77.20;7.40;96430.00;;;;5087641;28;20226;-81
2022/12/03 00:32:40;;;;;;;19.60;12.53;;;7.70;77.10;7.40;96426.00;;;;5090171;28;20227;-82
2022/12/03 00:35:09;;;;;;;20.37;12.30;;;7.70;77.30;7.40;96427.00;;;;5108299;28;20210;-81
2022/12/03 00:37:37;;;;;;;21.60;13.57;;;7.60;77.30;7.40;96421.00;;;;5108410;28;20254;-81
2022/12/03 00:40:06;;;;;;;22.30;12.53;;;7.60;77.30;7.40;96424.00;;;;5102912;28;20184;-81
2022/12/03 00:42:33;;;;;;;20.23;12.50;;;7.60;77.40;7.40;96422.00;;;;5088346;28;20196;-81
2022/12/03 00:45:00;;;;;;;18.83;12.10;;;7.60;77.30;7.40;96421.00;;;;5107582;28;20675;-82
2022/12/03 00:47:28;;;;;;;21.57;12.70;;;7.60;77.40;7.40;96427.00;;;;5107204;28;20219;-81
2022/12/03 00:49:55;;;;;;;19.60;12.43;;;7.60;77.40;7.40;96421.00;;;;5105950;28;20199;-81
2022/12/03 00:52:24;;;;;;;17.77;11.37;;;7.60;77.40;7.40;96422.00;;;;5106300;28;20225;-81
2022/12/03 00:54:51;;;;;;;20.50;12.67;;;7.60;77.40;7.40;96431.00;;;;5106758;28;20203;-81
2022/12/03 00:57:18;;;;;;;19.77;12.70;;;7.60;77.40;7.40;96426.00;;;;5105326;28;20245;-81
2022/12/03 00:59:45;;;;;;;20.30;12.43;;;7.60;77.40;7.40;96432.00;;;;5105726;28;20233;-82
2022/12/03 01:02:13;;;;;;;20.17;11.90;;;7.60;77.30;7.40;96426.00;;;;5105677;28;20199;-82
2022/12/03 01:04:40;;;;;;;18.20;12.20;;;7.60;77.40;7.40;96417.00;;;;5105497;28;20196;-81
2022/12/03 01:07:07;;;;;;;19.63;11.97;;;7.60;77.50;7.40;96425.00;;;;5105850;28;20242;-82
2022/12/03 01:09:36;;;;;;;20.53;11.90;;;7.60;77.40;7.40;96425.00;;;;5105990;28;20649;-82
2022/12/03 01:12:03;;;;;;;19.27;11.77;;;7.60;77.30;7.40;96417.00;;;;5106752;28;20199;-82
2022/12/03 01:14:30;;;;;;;16.77;11.17;;;7.60;77.10;7.40;96423.00;;;;5106131;28;20199;-82
2022/12/03 01:16:58;;;;;;;17.53;11.13;;;7.60;77.20;7.30;96431.00;;;;5097982;28;20256;-81
2022/12/03 01:19:25;;;;;;;20.47;12.30;;;7.60;77.30;7.40;96431.00;;;;5085532;28;20199;-82
2022/12/03 01:21:52;;;;;;;19.37;11.77;;;7.60;77.40;7.30;96429.00;;;;5072788;28;20213;-82
2022/12/03 01:24:20;;;;;;;17.40;11.93;;;7.60;77.30;7.40;96436.00;;;;5069595;28;20184;-82
2022/12/03 01:26:49;;;;;;;19.77;12.63;;;7.60;77.40;7.30;96428.00;;;;5085865;28;20249;-82
2022/12/03 01:29:16;;;;;;;20.37;12.80;;;7.60;77.30;7.30;96423.00;;;;5085774;28;20200;-82
2022/12/03 01:34:28;;;;;;;18.40;11.30;;;7.60;77.00;7.30;96414.00;;;;5071684;28;20238;-82
2022/12/03 01:36:55;;;;;;;21.10;12.13;;;7.60;76.90;7.30;96413.00;;;;5082955;28;20648;-82
2022/12/03 01:39:23;;;;;;;18.33;11.57;;;7.60;77.00;7.30;96412.00;;;;5075627;28;20290;-81
2022/12/03 01:41:53;;;;;;;20.13;11.80;;;7.60;77.20;7.30;96413.00;;;;5085089;28;20234;-82
2022/12/03 01:44:25;;;;;;;20.37;12.33;;;7.50;77.10;7.30;96410.00;;;;5085009;28;20211;-82
2022/12/03 01:46:57;;;;;;;17.73;11.50;;;7.50;77.00;7.30;96406.00;;;;5082842;28;20497;-82
2022/12/03 01:49:29;;;;;;;21.63;12.03;;;7.50;77.00;7.30;96417.00;;;;5084235;28;20276;-82
2022/12/03 01:51:57;;;;;;;18.97;11.17;;;7.60;77.10;7.30;96422.00;;;;5083539;28;20211;-82
2022/12/03 01:54:32;;;;;;;17.80;10.20;;;7.50;76.80;7.20;96423.00;;;;5083060;28;20658;-82
2022/12/03 01:57:01;;;;;;;20.30;11.07;;;7.50;76.40;7.20;96421.00;;;;5082991;28;20697;-82
2022/12/03 01:59:35;;;;;;;16.33;10.00;;;7.50;76.40;7.20;96421.00;;;;5082752;28;20227;-81
2022/12/03 02:02:12;;;;;;;19.53;11.60;;;7.50;76.50;7.20;96417.00;;;;5082701;28;20190;-82
2022/12/03 02:04:40;;;;;;;16.37;9.33;;;7.40;76.70;7.10;96420.00;;;;5088963;28;20631;-82
2022/12/03 02:07:23;;;;;;;16.57;9.67;;;7.40;76.80;7.10;96422.00;;;;5067421;28;20259;-82
2022/12/03 02:09:51;;;;;;;16.20;9.90;;;7.40;76.80;7.10;96428.00;;;;5079750;28;20184;-81
2022/12/03 02:12:24;;;;;;;17.63;11.13;;;7.40;77.00;7.10;96434.00;;;;5070698;28;20212;-82
2022/12/03 02:14:53;;;;;;;18.30;10.23;;;7.40;77.00;7.10;96435.00;;;;5079980;28;20261;-82
2022/12/03 02:17:21;;;;;;;17.33;9.37;;;7.40;76.90;7.10;96424.00;;;;5081110;28;20251;-82
2022/12/03 02:19:49;;;;;;;16.23;9.93;;;7.40;76.70;7.10;96428.00;;;;5082090;28;20675;-81
2022/12/03 02:22:34;;;;;;;16.33;10.03;;;7.40;76.70;7.10;96431.00;;;;5082442;28;20582;-82
2022/12/03 02:25:17;;;;;;;16.43;10.50;;;7.40;76.80;7.10;96429.00;;;;5082730;28;20219;-82
2022/12/03 02:27:46;;;;;;;16.03;9.50;;;7.40;76.90;7.10;96434.00;;;;5081720;28;20251;-82
2022/12/03 02:30:16;;;;;;;16.83;9.93;;;7.30;76.90;7.10;96438.00;;;;5078882;28;20200;-82
2022/12/03 02:32:44;;;;;;;17.53;10.20;;;7.30;76.80;7.00;96433.00;;;;5084181;28;20227;-81
2022/12/03 02:35:15;;;;;;;16.57;9.97;;;7.30;76.80;7.00;96434.00;;;;5096830;28;20645;-81
2022/12/03 02:37:45;;;;;;;14.13;8.70;;;7.30;76.60;6.90;96435.00;;;;5083836;28;20247;-81
2022/12/03 02:40:21;;;;;;;15.47;9.43;;;7.30;76.40;6.90;96432.00;;;;5089149;28;20222;-82
2022/12/03 02:42:50;;;;;;;14.90;9.30;;;7.30;76.40;6.90;96429.00;;;;5092321;28;20219;-82
2022/12/03 02:45:25;;;;;;;16.33;9.83;;;7.20;76.40;6.90;96430.00;;;;5082506;28;20192;-82
2022/12/03 02:47:58;;;;;;;17.13;10.33;;;7.20;76.40;6.90;96432.00;;;;5080524;28;20223;-81
2022/12/03 02:50:30;;;;;;;17.27;9.90;;;7.20;76.50;6.90;96423.00;;;;5076580;28;20650;-82
2022/12/03 02:53:02;;;;;;;17.17;9.00;;;7.20;76.60;6.80;96431.00;;;;5082009;28;20287;-82
2022/12/03 02:55:33;;;;;;;14.70;9.33;;;7.20;76.70;6.90;96420.00;;;;5061901;28;20216;-82
2022/12/03 02:58:04;;;;;;;16.17;10.03;;;7.20;76.80;6.90;96427.00;;;;5061303;28;20586;-82
2022/12/03 03:00:32;;;;;;;16.10;9.73;;;7.20;77.00;6.90;96427.00;;;;5061184;28;20796;-82
2022/12/03 03:03:00;;;;;;;15.73;10.37;;;7.10;76.80;6.90;96429.00;;;;5068558;28;20223;-82
2022/12/03 03:05:28;;;;;;;15.83;9.10;;;7.10;76.90;6.80;96429.00;;;;5082077;28;20258;-82
2022/12/03 03:07:58;;;;;;;15.47;9.53;;;7.10;76.80;6.80;96417.00;;;;5081144;28;20250;-82
2022/12/03 03:10:26;;;;;;;14.00;9.40;;;7.10;76.80;6.80;96420.00;;;;5080870;28;20199;-82
2022/12/03 03:12:56;;;;;;;17.53;10.27;;;7.10;77.00;6.80;96418.00;;;;5071298;28;20201;-82
2022/12/03 03:15:24;;;;;;;15.53;9.90;;;7.10;77.20;6.90;96419.00;;;;5060654;28;20220;-82
2022/12/03 03:17:52;;;;;;;16.93;8.93;;;7.10;77.20;6.90;96423.00;;;;5060799;28;20585;-82
2022/12/03 03:20:20;;;;;;;14.43;9.27;;;7.10;77.30;6.90;96434.00;;;;5060382;28;20225;-81
2022/12/03 03:22:47;;;;;;;14.47;9.17;;;7.10;77.30;6.90;96434.00;;;;5060561;28;20204;-81
2022/12/03 03:25:20;;;;;;;15.13;9.60;;;7.20;77.40;6.90;96428.00;;;;5060283;28;20197;-82
2022/12/03 03:27:47;;;;;;;16.63;9.70;;;7.10;77.30;6.90;96427.00;;;;5059615;28;20224;-82
2022/12/03 03:30:16;;;;;;;15.23;9.97;;;7.20;77.40;6.90;96437.00;;;;5068139;28;20192;-82
2022/12/03 03:32:43;;;;;;;19.53;9.93;;;7.20;77.30;6.90;96429.00;;;;5091019;28;20195;-81
2022/12/03 03:35:13;;;;;;;15.70;9.37;;;7.10;77.80;6.90;96432.00;;;;5099822;28;20242;-82
2022/12/03 03:37:41;;;;;;;15.07;10.13;;;7.20;77.10;6.90;96425.00;;;;5079662;28;20220;-82
2022/12/03 03:40:10;;;;;;;15.73;10.50;;;7.20;77.20;6.90;96424.00;;;;5079929;28;20204;-82
2022/12/03 03:42:38;;;;;;;18.87;11.07;;;7.10;77.20;6.90;96427.00;;;;5079965;28;20238;-82
2022/12/03 03:45:09;;;;;;;16.07;10.27;;;7.20;77.10;6.90;96423.00;;;;5080450;28;20196;-82
2022/12/03 03:47:38;;;;;;;15.07;9.50;;;7.20;77.10;6.90;96417.00;;;;5080674;28;20307;-81
2022/12/03 03:50:08;;;;;;;16.37;10.17;;;7.20;77.10;6.90;96412.00;;;;5081222;28;20612;-82
2022/12/03 03:52:37;;;;;;;15.43;10.20;;;7.20;77.00;6.90;96401.00;;;;5080217;28;20200;-82
2022/12/03 03:55:05;;;;;;;14.57;9.27;;;7.20;77.10;6.90;96404.00;;;;5064945;28;20667;-82
2022/12/03 03:57:33;;;;;;;17.73;10.67;;;7.10;77.00;6.90;96397.00;;;;5068971;28;20732;-81
2022/12/03 04:00:00;;;;;;;15.63;9.67;;;7.10;77.10;6.80;96392.00;;;;5080968;28;20218;-82
2022/12/03 04:02:28;;;;;;;16.63;9.67;;;7.10;77.10;6.90;96389.00;;;;5098260;28;20222;-81
2022/12/03 04:04:57;;;;;;;17.17;10.27;;;7.10;77.20;6.80;96396.00;;;;5102629;28;20230;-81
2022/12/03 04:07:24;;;;;;;18.30;9.87;;;7.10;77.10;6.80;96390.00;;;;5101795;28;20227;-81
2022/12/03 04:09:51;;;;;;;17.10;10.93;;;7.10;77.00;6.80;96392.00;;;;5097704;28;20218;-82
2022/12/03 04:15:05;;;;;;;17.13;11.07;;;7.10;77.20;6.80;96401.00;;;;5064426;28;20168;-82
2022/12/03 04:17:32;;;;;;;16.67;9.73;;;7.10;77.30;6.80;96400.00;;;;5083672;28;20626;-82
2022/12/03 04:20:00;;;;;;;16.37;9.97;;;7.10;77.30;6.80;96401.00;;;;5092155;28;20204;-82
2022/12/03 04:22:39;;;;;;;16.23;9.60;;;7.10;77.20;6.80;96402.00;;;;5077506;28;20217;-82
2022/12/03 04:30:39;;;;;;;17.57;10.53;;;7.10;77.90;6.80;96398.00;;;;5064402;28;20183;-81
2022/12/03 04:35:53;;;;;;;15.67;9.37;;;7.10;76.90;6.70;96403.00;;;;5085165;28;20230;-82
2022/12/03 04:38:20;;;;;;;18.83;10.47;;;7.10;77.00;6.80;96402.00;;;;5072453;28;20256;-81
2022/12/03 04:41:03;;;;;;;16.90;9.87;;;7.10;77.10;6.70;96398.00;;;;5064893;28;20682;-82
2022/12/03 04:43:33;;;;;;;17.03;10.43;;;7.00;76.90;6.70;96408.00;;;;5064817;28;20248;-81
2022/12/03 04:46:02;;;;;;;18.00;9.67;;;7.10;76.80;6.70;96404.00;;;;5064824;28;20680;-82
2022/12/03 04:48:29;;;;;;;17.10;10.13;;;7.00;76.70;6.70;96414.00;;;;5063899;28;20223;-81
2022/12/03 04:50:57;;;;;;;15.27;9.17;;;7.00;76.80;6.70;96409.00;;;;5064717;28;20240;-82
2022/12/03 04:53:25;;;;;;;17.77;10.20;;;7.00;76.70;6.70;96403.00;;;;5077890;28;20203;-81
2022/12/03 04:55:52;;;;;;;15.43;9.73;;;7.00;76.90;6.70;96410.00;;;;5084834;28;20235;-82
2022/12/03 04:58:19;;;;;;;15.53;9.47;;;7.00;77.00;6.70;96418.00;;;;5085010;28;20230;-81
2022/12/03 05:00:46;;;;;;;16.00;9.87;;;7.00;77.10;6.70;96406.00;;;;5084214;28;20206;-82
2022/12/03 05:03:13;;;;;;;15.80;8.97;;;7.00;77.00;6.70;96417.00;;;;5085193;28;20224;-82
2022/12/03 05:05:40;;;;;;;14.37;9.33;;;7.00;77.10;6.70;96411.00;;;;5084105;28;20196;-82
2022/12/03 05:08:09;;;;;;;12.83;8.10;;;7.00;77.10;6.70;96426.00;;;;5083578;28;20235;-82
2022/12/03 05:10:38;;;;;;;14.00;8.80;;;7.00;77.00;6.70;96422.00;;;;5075304;28;20203;-82
2022/12/03 05:13:05;;;;;;;11.97;8.10;;;7.00;77.00;6.70;96414.00;;;;5079361;28;20223;-82
2022/12/03 05:15:32;;;;;;;15.37;8.53;;;7.00;77.00;6.70;96409.00;;;;5084966;28;20685;-82
2022/12/03 05:17:59;;;;;;;15.67;8.77;;;7.00;77.10;6.80;96416.00;;;;5085885;28;20243;-82
2022/12/03 05:20:42;;;;;;;14.80;8.37;;;7.00;77.20;6.80;96415.00;;;;5086074;28;20219;-81
2022/12/03 05:23:13;;;;;;;13.07;8.03;;;7.00;77.20;6.80;96421.00;;;;5086202;28;20650;-82
2022/12/03 05:25:41;;;;;;;16.00;9.07;;;7.10;77.30;6.80;96411.00;;;;5085748;28;20219;-82
2022/12/03 05:28:08;;;;;;;13.73;8.33;;;7.10;77.20;6.80;96411.00;;;;5082089;28;20216;-81
2022/12/03 05:30:36;;;;;;;13.30;8.33;;;7.10;77.20;6.80;96422.00;;;;5083669;28;20203;-81
2022/12/03 05:33:03;;;;;;;16.03;8.67;;;7.10;77.20;6.80;96407.00;;;;5082107;28;20628;-81
2022/12/03 05:35:30;;;;;;;18.53;9.47;;;7.10;77.10;6.90;96417.00;;;;5074383;28;20196;-81
2022/12/03 05:37:57;;;;;;;14.93;8.50;;;7.10;77.30;6.90;96411.00;;;;5084033;28;20283;-82
2022/12/03 05:40:26;;;;;;;16.27;9.40;;;7.10;77.30;6.90;96418.00;;;;5082046;28;20700;-81
2022/12/03 05:42:52;;;;;;;14.63;8.70;;;7.10;77.40;6.90;96418.00;;;;5081530;28;20200;-82
2022/12/03 05:45:19;;;;;;;17.33;9.13;;;7.10;77.40;6.90;96421.00;;;;5093082;28;20207;-82
2022/12/03 05:47:47;;;;;;;15.37;8.87;;;7.20;77.20;6.90;96425.00;;;;5104715;28;20250;-82
2022/12/03 05:50:14;;;;;;;13.57;8.57;;;7.20;77.10;6.90;96428.00;;;;5093221;28;20677;-81
2022/12/03 05:52:42;;;;;;;17.40;9.23;;;7.10;76.90;6.90;96426.00;;;;5086718;28;20246;-82
2022/12/03 05:55:10;;;;;;;16.77;8.90;;;7.20;77.00;6.90;96425.00;;;;5084819;28;20204;-81
2022/12/03 05:57:39;;;;;;;17.17;10.03;;;7.20;77.20;6.90;96437.00;;;;5084917;28;20626;-82
2022/12/03 06:00:15;;;;;;;14.87;8.50;;;7.20;77.00;6.90;96430.00;;;;5090157;28;20564;-82
2022/12/03 06:02:42;;;;;;;15.57;8.67;;;7.20;77.00;6.90;96432.00;;;;5084337;28;20670;-82
2022/12/03 06:05:11;;;;;;;17.77;9.73;;;7.20;77.00;6.90;96421.00;;;;5065972;28;20236;-82
2022/12/03 06:07:39;;;;;;;17.50;9.63;;;7.20;77.00;6.90;96422.00;;;;5065941;28;20228;-81
2022/12/03 06:10:10;;;;;;;18.00;9.87;;;7.20;77.20;7.00;96414.00;;;;5085369;28;20223;-82
2022/12/03 06:12:38;;;;;;;19.67;10.83;;;7.20;77.30;7.00;96416.00;;;;5084213;28;20236;-82
2022/12/03 06:15:08;;;;;;;15.80;8.70;;;7.20;77.40;7.00;96409.00;;;;5089501;28;20215;-81
2022/12/03 06:17:36;;;;;;;16.93;9.50;;;7.20;77.40;7.00;96416.00;;;;5093816;28;20286;-82
2022/12/03 06:20:04;;;;;;;18.63;10.00;;;7.20;77.20;7.00;96415.00;;;;5085495;28;20203;-81
2022/12/03 06:22:31;;;;;;;16.97;9.70;;;7.30;77.40;7.00;96420.00;;;;5084835;28;20273;-81
2022/12/03 06:24:58;;;;;;;22.10;10.47;;;7.30;77.40;7.00;96413.00;;;;5081494;28;20204;-84
2022/12/03 06:27:26;;;;;;;17.93;9.73;;;7.30;77.40;7.00;96416.00;;;;5069406;28;20652;-84
2022/12/03 06:29:54;;;;;;;18.07;10.37;;;7.30;77.40;7.10;96418.00;;;;5066971;28;20227;-84
2022/12/03 06:32:21;;;;;;;16.73;10.10;;;7.30;77.30;7.10;96425.00;;;;5070737;28;20200;-84
2022/12/03 06:34:49;;;;;;;16.23;9.33;;;7.30;77.30;7.10;96428.00;;;;5071823;28;20273;-85
2022/12/03 06:37:16;;;;;;;15.83;9.37;;;7.30;77.30;7.10;96423.00;;;;5070825;28;20220;-82
2022/12/03 06:39:43;;;;;;;16.27;9.40;;;7.30;77.30;7.00;96423.00;;;;5082257;28;20200;-82
2022/12/03 06:42:10;;;;;;;15.03;9.33;;;7.30;77.10;7.00;96419.00;;;;5088755;28;20200;-81
2022/12/03 06:44:37;;;;;;;14.57;8.90;;;7.30;77.30;7.00;96421.00;;;;5089198;28;20250;-81
2022/12/03 06:47:06;;;;;;;14.17;8.90;;;7.30;77.30;7.10;96415.00;;;;5081152;28;20224;-81
2022/12/03 06:49:33;;;;;;;17.30;8.67;;;7.30;77.30;7.10;96411.00;;;;5080227;28;20195;-81
2022/12/03 06:52:00;;;;;;;17.40;8.80;;;7.30;77.20;7.10;96399.00;;;;5078549;28;20200;-81
2022/12/03 06:54:28;;;;;;;13.50;8.60;;;7.30;77.20;7.10;96406.00;;;;5072925;28;20239;-85
2022/12/03 06:56:55;;;;;;;16.70;9.47;;;7.30;77.30;7.10;96410.00;;;;5070850;28;20362;-86
2022/12/03 06:59:22;;;;;;;16.57;9.33;;;7.30;77.30;7.20;96414.00;;;;5068947;28;20235;-85
2022/12/03 07:01:49;;;;;;;12.40;8.13;;;7.30;77.30;7.20;96415.00;;;;5069179;28;20196;-86
2022/12/03 07:04:18;;;;;;;16.73;9.40;;;7.40;77.20;7.30;96412.00;;;;5069750;28;20330;-85
2022/12/03 07:06:45;;;;;;;15.03;9.30;;;7.40;77.10;7.30;96422.00;;;;5069782;28;20310;-87
2022/12/03 07:09:16;;;;;;;15.83;8.90;;;7.40;77.10;7.40;96431.00;;;;5069811;28;20616;-86
2022/12/03 07:11:43;;;;;;;18.77;9.33;;;7.40;77.20;7.40;96425.00;;;;5069000;28;20283;-86
2022/12/03 07:14:11;;;;;;;17.30;9.43;;;7.50;77.00;7.40;96428.00;;;;5071419;28;20686;-86
2022/12/03 07:16:41;;;;;;;16.03;9.17;;;7.50;76.90;7.40;96422.00;;;;5071268;28;20716;-87
2022/12/03 07:19:09;;;;;;;14.47;8.47;;;7.50;76.90;7.40;96422.00;;;;5070662;28;20669;-85
2022/12/03 07:21:38;;;;;;;15.63;8.37;;;7.50;76.40;7.30;96412.00;;;;5070055;28;20257;-86
2022/12/03 07:24:06;;;;;;;15.83;8.77;;;7.50;76.10;7.30;96407.00;;;;5070057;28;20302;-84
2022/12/03 07:26:33;;;;;;;13.70;7.90;;;7.50;76.10;7.30;96407.00;;;;5070109;28;20331;-86
2022/12/03 07:29:00;;;;;;;14.50;8.77;;;7.50;76.30;7.30;96401.00;;;;5069433;28;20290;-86
2022/12/03 07:31:28;;;;;;;15.43;9.03;;;7.50;76.20;7.30;96401.00;;;;5087188;22;20223;-85
2022/12/03 07:33:55;;;;;;;16.00;8.83;;;7.40;76.00;7.30;96393.00;;;;5070617;28;20199;-82
2022/12/03 07:36:22;;;;;;;16.70;9.23;;;7.60;76.10;7.30;96389.00;;;;5067002;28;20224;-88
2022/12/03 07:38:51;;;;;;;14.73;9.23;;;7.40;76.00;7.30;96394.00;;;;5058116;28;20663;-84
2022/12/03 07:41:18;;;;;;;14.83;9.17;;;7.50;76.20;7.30;96401.00;;;;5060982;28;20232;-84
2022/12/03 07:43:45;;;;;;;17.43;9.27;;;7.50;76.40;7.30;96392.00;;;;5062499;28;20262;-83
2022/12/03 07:46:14;;;;;;;15.93;8.93;;;7.40;76.50;7.30;96395.00;;;;5067851;28;20625;-84
2022/12/03 07:48:42;;;;;;;13.47;8.90;;;7.40;76.50;7.40;96399.00;;;;5067027;28;20300;-85
2022/12/03 07:51:09;;;;;;;15.93;8.53;;;7.50;76.70;7.40;96389.00;;;;5066914;28;20292;-86
2022/12/03 07:53:36;;;;;;;16.33;8.73;;;7.50;76.80;7.40;96398.00;;;;5061444;28;20220;-85
2022/12/03 07:56:06;;;;;;;14.23;8.73;;;7.50;76.70;7.40;96411.00;;;;5064240;28;20722;-85
2022/12/03 07:58:33;;;;;;;11.27;7.90;;;7.50;76.70;7.40;96401.00;;;;5059158;28;20633;-86
2022/12/03 08:01:00;;;;;;;15.83;8.80;;;7.50;76.70;7.40;96402.00;;;;5063885;28;20204;-85
2022/12/03 08:03:28;;;;;;;13.57;8.20;;;7.50;76.50;7.40;96404.00;;;;5065707;28;20228;-85
2022/12/03 08:05:55;;;;;;;13.33;7.67;;;7.50;76.40;7.40;96412.00;;;;5076859;28;20208;-82
2022/12/03 08:08:22;;;;;;;15.90;8.60;;;7.60;76.40;7.40;96416.00;;;;5064120;28;20232;-84
2022/12/03 08:10:49;;;;;;;13.47;8.43;;;7.50;76.40;7.40;96419.00;;;;5059547;28;20330;-84
2022/12/03 08:13:19;;;;;;;13.80;8.47;;;7.50;76.50;7.50;96418.00;;;;5062403;28;20628;-82
2022/12/03 08:15:47;;;;;;;14.77;8.40;;;7.60;76.30;7.40;96412.00;;;;5064163;28;20299;-83
2022/12/03 08:18:18;;;;;;;15.10;8.57;;;7.50;76.20;7.50;96417.00;;;;5070620;28;20298;-85
2022/12/03 08:20:48;;;;;;;12.10;7.60;;;7.60;76.30;7.50;96417.00;;;;5060469;28;20592;-84
2022/12/03 08:23:19;;;;;;;13.73;9.20;;;7.60;76.40;7.50;96417.00;;;;5072505;28;20291;-83
2022/12/03 08:25:47;;;;;;;15.97;9.00;;;7.60;76.20;7.50;96414.00;;;;5065155;28;20193;-85
2022/12/03 08:28:19;;;;;;;13.67;8.17;;;7.60;76.90;7.50;96415.00;;;;5061017;28;20277;-86
2022/12/03 08:31:00;;;;;;;13.63;8.17;;;7.60;76.20;7.50;96418.00;;;;5064031;28;20220;-86
2022/12/03 08:33:32;;;;;;;9.67;7.00;;;7.60;76.20;7.50;96415.00;;;;5062345;28;20231;-88
2022/12/03 08:36:06;;;;;;;11.47;7.70;;;7.60;76.20;7.50;96408.00;;;;5063114;28;20747;-90
2022/12/03 08:38:33;;;;;;;11.47;7.57;;;7.60;76.20;7.50;96409.00;;;;5061939;28;20308;-85
2022/12/03 08:41:01;;;;;;;14.13;8.20;;;7.60;76.00;7.50;96408.00;;;;5060329;28;20623;-86
2022/12/03 08:43:40;;;;;;;12.40;7.63;;;7.60;75.90;7.50;96405.00;;;;5061272;28;20573;-89
2022/12/03 08:46:16;;;;;;;12.37;7.90;;;7.60;75.90;7.50;96412.00;;;;5062390;28;20220;-86
2022/12/03 08:48:45;;;;;;;11.70;7.93;;;7.60;75.90;7.50;96418.00;;;;5060318;28;20544;-86
2022/12/03 08:51:23;;;;;;;10.93;7.90;;;7.60;76.00;7.50;96417.00;;;;5065212;28;20272;-85
2022/12/03 08:53:53;;;;;;;10.97;7.40;;;7.60;76.00;7.50;96417.00;;;;5062362;28;20650;-83
2022/12/03 08:56:23;;;;;;;12.30;7.33;;;7.60;76.00;7.50;96413.00;;;;5065225;28;20624;-83
2022/12/03 08:58:56;;;;;;;11.10;7.57;;;7.60;76.10;7.60;96411.00;;;;5062968;28;20252;-83
2022/12/03 09:01:33;;;;;;;12.37;8.00;;;7.60;76.10;7.60;96422.00;;;;5064193;28;20227;-83
2022/12/03 09:04:31;;;;;;;13.83;8.53;;;7.60;75.90;7.50;96425.00;;;;5062691;28;20199;-83
2022/12/03 09:06:59;;;;;;;13.07;7.93;;;7.60;75.90;7.60;96427.00;;;;5055335;28;20728;-86
2022/12/03 09:09:26;;;;;;;12.43;8.00;;;7.60;76.00;7.60;96433.00;;;;5058952;28;20201;-86
2022/12/03 09:11:54;;;;;;;10.77;7.53;;;7.60;76.10;7.60;96423.00;;;;5066273;28;20241;-86
2022/12/03 09:14:23;;;;;;;12.37;8.30;;;7.60;76.00;7.60;96413.00;;;;5063305;28;20204;-84
2022/12/03 09:16:54;;;;;;;11.30;8.00;;;7.60;75.70;7.50;96415.00;;;;5066897;28;20271;-83
2022/12/03 09:19:22;;;;;;;14.00;8.43;;;7.60;75.70;7.50;96421.00;;;;5063564;28;20274;-83
2022/12/03 09:21:49;;;;;;;11.23;7.90;;;7.60;75.70;7.50;96418.00;;;;5064221;28;20674;-83
2022/12/03 09:24:16;;;;;;;13.20;8.47;;;7.60;75.70;7.50;96416.00;;;;5062650;28;20674;-83
2022/12/03 09:26:44;;;;;;;13.13;8.40;;;7.60;75.80;7.50;96406.00;;;;5063145;28;20220;-83
2022/12/03 09:29:11;;;;;;;13.07;8.93;;;7.60;75.90;7.50;96405.00;;;;5062575;28;20754;-85
2022/12/03 09:31:40;;;;;;;12.80;8.97;;;7.60;75.90;7.60;96399.00;;;;5061450;28;20242;-85
2022/12/03 09:34:08;;;;;;;16.03;8.83;;;7.60;75.70;7.60;96407.00;;;;5064329;28;20231;-85
2022/12/03 09:36:35;;;;;;;10.73;7.80;;;7.60;75.50;7.50;96399.00;;;;5064341;28;20251;-85
2022/12/03 09:39:03;;;;;;;11.37;8.53;;;7.70;75.40;7.50;96401.00;;;;5058173;28;20255;-84
2022/12/03 09:41:30;;;;;;;12.27;8.73;;;7.60;75.00;7.40;96399.00;;;;5060443;28;20204;-84
2022/12/03 09:43:58;;;;;;;10.10;7.17;;;7.60;74.80;7.40;96398.00;;;;5063741;28;20240;-86
2022/12/03 09:46:25;;;;;;;12.23;8.87;;;7.60;75.00;7.40;96391.00;;;;5062425;28;20775;-85
2022/12/03 09:48:54;;;;;;;11.00;7.80;;;7.60;75.00;7.40;96394.00;;;;5062590;28;20297;-86
2022/12/03 09:51:22;;;;;;;15.27;8.23;;;7.60;75.00;7.40;96392.00;;;;5066926;28;20827;-85
2022/12/03 09:53:50;;;;;;;11.80;8.30;;;7.50;74.90;7.40;96384.00;;;;5067454;28;20208;-84
2022/12/03 09:56:22;;;;;;;12.43;8.40;;;7.50;74.80;7.40;96390.00;;;;5065633;28;20224;-84
2022/12/03 09:58:50;;;;;;;12.07;8.17;;;7.60;75.00;7.40;96403.00;;;;5067408;28;20223;-82
2022/12/03 10:01:18;;;;;;;11.37;8.37;;;7.50;75.20;7.40;96394.00;;;;5063713;28;21810;-82
2022/12/03 10:03:49;;;;;;;13.53;7.87;;;7.50;76.00;7.40;96392.00;;;;5065060;28;20247;-81
2022/12/03 10:06:20;;;;;;;12.30;8.13;;;7.50;75.20;7.40;96389.00;;;;5063137;28;20259;-83
2022/12/03 10:08:52;;;;;;;10.87;7.60;;;7.50;75.40;7.40;96387.00;;;;5064842;28;20220;-83
2022/12/03 10:11:24;;;;;;;11.90;8.23;;;7.50;75.50;7.40;96387.00;;;;5065530;28;20196;-82
2022/12/03 10:13:52;;;;;;;12.53;7.97;;;7.50;75.10;7.40;96380.00;;;;5064050;28;20228;-83
2022/12/03 10:16:21;;;;;;;10.73;7.97;;;7.50;75.10;7.40;96385.00;;;;5062588;28;20211;-82
2022/12/03 10:18:52;;;;;;;12.43;8.00;;;7.50;75.30;7.50;96379.00;;;;5060227;28;20208;-83
2022/12/03 10:21:25;;;;;;;11.93;8.17;;;7.60;75.60;7.50;96379.00;;;;5061278;28;20620;-83
2022/12/03 10:24:22;;;;;;;11.33;7.57;;;7.60;75.60;7.50;96368.00;;;;5058513;28;20227;-83
2022/12/03 10:26:52;;;;;;;11.40;7.37;;;7.60;75.60;7.50;96365.00;;;;5062172;28;20255;-82
2022/12/03 10:29:25;;;;;;;12.13;7.20;;;7.60;75.70;7.50;96356.00;;;;5062948;28;20254;-84
2022/12/03 10:31:57;;;;;;;11.70;7.30;;;7.60;75.50;7.60;96361.00;;;;5062421;28;20200;-83
2022/12/03 10:34:30;;;;;;;10.80;7.87;;;7.60;75.30;7.60;96356.00;;;;5061163;28;20212;-84
2022/12/03 10:37:17;;;;;;;11.07;7.73;;;7.60;75.20;7.60;96358.00;;;;5063643;28;20227;-83
2022/12/03 10:40:07;;;;;;;11.00;7.23;;;7.70;75.30;7.60;96348.00;;;;5061304;28;20228;-84
2022/12/03 10:42:37;;;;;;;12.00;7.77;;;7.70;75.40;7.60;96352.00;;;;5062597;28;20204;-83
2022/12/03 10:45:18;;;;;;;11.30;7.73;;;7.70;75.60;7.70;96341.00;;;;5065802;28;20333;-81
2022/12/03 10:48:05;;;;;;;10.90;7.60;;;7.70;75.50;7.70;96344.00;;;;5061329;28;20318;-83
2022/12/03 10:50:33;;;;;;;11.60;7.60;;;7.70;75.20;7.70;96336.00;;;;5061449;28;20631;-83
2022/12/03 10:53:02;;;;;;;11.83;8.03;;;7.70;75.30;7.70;96345.00;;;;5061860;28;20715;-83
2022/12/03 10:55:37;;;;;;;10.80;7.30;;;7.70;75.20;7.70;96338.00;;;;5059500;28;20220;-82
2022/12/03 10:58:05;;;;;;;12.77;8.07;;;7.80;75.00;7.70;96345.00;;;;5060192;28;20317;-82
2022/12/03 11:00:32;;;;;;;11.30;7.90;;;7.80;75.10;7.70;96335.00;;;;5061231;28;20235;-83
2022/12/03 11:02:59;;;;;;;12.03;8.00;;;7.80;75.30;7.70;96339.00;;;;5061736;28;20282;-83
2022/12/03 11:05:28;;;;;;;13.93;8.10;;;7.80;75.20;7.70;96328.00;;;;5063763;28;20265;-83
2022/12/03 11:07:56;;;;;;;17.60;9.83;;;7.80;75.30;7.70;96320.00;;;;5062876;28;20327;-84
2022/12/03 11:10:25;;;;;;;11.67;8.40;;;7.80;75.30;7.70;96325.00;;;;5060170;28;20228;-83
2022/12/03 11:13:46;;;;;;;12.33;8.70;;;7.80;75.20;7.70;96321.00;;;;5059795;28;20203;-84
2022/12/03 11:16:29;;;;;;;14.07;9.30;;;7.80;75.00;7.70;96325.00;;;;5062847;28;20244;-85
2022/12/03 11:19:02;;;;;;;13.17;8.90;;;7.80;75.40;7.80;96321.00;;;;5066230;28;20273;-84
2022/12/03 11:21:30;;;;;;;11.13;7.70;;;7.80;75.50;7.80;96322.00;;;;5068695;28;20226;-84
2022/12/03 11:24:21;;;;;;;13.17;8.60;;;7.80;75.50;7.80;96313.00;;;;5066616;28;20200;-85